Time;durP1;ratioP1;P1;durP2;ratioP2;P2;SDS_P1;SDS_P2;PMS_P1;PMS_P2;Temp;Humidity;BMP_temperature;BMP_pressure;BME280_temperature;BME280_humidity;BME280_pressure;Samples;Min_cycle;Max_cycle;Signal;HPM_P1;HPM_P2
2023/07/15 00:01:30;;;;;;;4.50;2.08;;;21.20;1.00;;;;;;4934445;29;20035;-83
2023/07/15 00:03:57;;;;;;;3.10;1.55;;;21.20;1.00;;;;;;4943718;29;20051;-84
2023/07/15 00:06:24;;;;;;;1.92;1.10;;;21.20;1.00;;;;;;4952447;29;20046;-83
2023/07/15 00:08:52;;;;;;;3.33;1.42;;;21.10;1.00;;;;;;4934322;29;20043;-84
2023/07/15 00:11:28;;;;;;;3.03;1.10;;;21.20;1.00;;;;;;4948570;29;20035;-83
2023/07/15 00:14:01;;;;;;;3.47;1.65;;;21.20;1.00;;;;;;4953817;29;20477;-85
2023/07/15 00:16:29;;;;;;;2.15;1.27;;;21.20;1.00;;;;;;4954055;29;20039;-83
2023/07/15 00:18:56;;;;;;;5.05;1.33;;;21.20;1.00;;;;;;4935876;29;20038;-83
2023/07/15 00:21:25;;;;;;;4.43;1.23;;;21.30;1.00;;;;;;4935303;29;20051;-83
2023/07/15 00:23:55;;;;;;;2.35;1.15;;;21.30;1.00;;;;;;4952280;29;20044;-83
2023/07/15 00:26:31;;;;;;;3.25;1.20;;;21.40;1.00;;;;;;4955292;29;20124;-84
2023/07/15 00:28:57;;;;;;;2.85;1.33;;;21.30;1.00;;;;;;4951282;29;20055;-84
2023/07/15 00:31:24;;;;;;;3.20;1.40;;;21.30;1.00;;;;;;4935827;29;20487;-84
2023/07/15 00:33:51;;;;;;;3.83;1.38;;;21.40;1.00;;;;;;4937175;29;20039;-83
2023/07/15 00:36:17;;;;;;;1.60;0.80;;;21.40;1.00;;;;;;4921432;29;20046;-84
2023/07/15 00:38:44;;;;;;;4.07;1.65;;;21.40;1.00;;;;;;4935986;29;20051;-84
2023/07/15 00:41:23;;;;;;;4.47;1.58;;;21.40;1.00;;;;;;4952263;29;20035;-84
2023/07/15 00:43:55;;;;;;;2.25;1.42;;;21.40;1.00;;;;;;4952119;29;20043;-84
2023/07/15 00:46:22;;;;;;;2.25;1.08;;;21.30;1.00;;;;;;4937281;29;20398;-82
2023/07/15 00:48:58;;;;;;;6.28;1.42;;;21.30;1.00;;;;;;4943078;29;20046;-83
2023/07/15 00:51:27;;;;;;;3.05;1.27;;;21.30;1.00;;;;;;4934720;29;20065;-84
2023/07/15 00:53:54;;;;;;;2.25;1.38;;;21.20;1.00;;;;;;4935747;29;20040;-83
2023/07/15 00:56:21;;;;;;;2.10;0.88;;;21.10;1.00;;;;;;4954399;29;20467;-84
2023/07/15 00:58:50;;;;;;;4.40;1.13;;;21.10;1.00;;;;;;4919469;29;20505;-84
2023/07/15 01:01:17;;;;;;;3.08;1.00;;;21.00;1.00;;;;;;4953499;29;20031;-84
2023/07/15 01:03:45;;;;;;;3.30;1.52;;;21.00;1.00;;;;;;4930516;29;20040;-84
2023/07/15 01:06:13;;;;;;;3.05;1.52;;;20.90;1.00;;;;;;4935107;29;20039;-83
2023/07/15 01:08:39;;;;;;;3.85;1.52;;;20.80;1.00;;;;;;4937869;29;20046;-83
2023/07/15 01:11:06;;;;;;;1.20;0.70;;;20.80;1.00;;;;;;4939847;29;20044;-83
2023/07/15 01:13:34;;;;;;;1.67;1.17;;;20.70;1.00;;;;;;4936657;29;20051;-83
2023/07/15 01:16:00;;;;;;;3.10;1.05;;;20.70;1.00;;;;;;4937720;29;20369;-83
2023/07/15 01:18:28;;;;;;;1.60;0.90;;;20.60;1.00;;;;;;4943773;29;20027;-83
2023/07/15 01:20:59;;;;;;;3.75;1.20;;;20.60;1.00;;;;;;4933286;29;20055;-85
2023/07/15 01:23:28;;;;;;;3.13;1.30;;;20.70;1.00;;;;;;4920916;29;20052;-83
2023/07/15 01:25:55;;;;;;;1.60;0.90;;;20.70;1.00;;;;;;4932940;29;20058;-84
2023/07/15 01:28:22;;;;;;;2.95;1.15;;;20.60;1.00;;;;;;4940006;29;20051;-83
2023/07/15 01:30:48;;;;;;;3.25;1.20;;;20.70;1.00;;;;;;4933960;29;20478;-84
2023/07/15 01:33:18;;;;;;;2.65;1.35;;;20.80;1.00;;;;;;4919580;29;20050;-83
2023/07/15 01:35:48;;;;;;;3.33;1.63;;;20.80;1.00;;;;;;4953211;29;20050;-82
2023/07/15 01:38:15;;;;;;;2.60;1.50;;;20.90;1.00;;;;;;4950116;29;20031;-82
2023/07/15 01:40:43;;;;;;;2.88;0.90;;;21.00;1.00;;;;;;4932709;29;20043;-82
2023/07/15 01:43:10;;;;;;;2.83;1.50;;;21.10;1.00;;;;;;4931687;29;20483;-83
2023/07/15 01:45:36;;;;;;;1.92;1.20;;;21.20;1.00;;;;;;4950915;29;20488;-82
2023/07/15 01:48:04;;;;;;;2.08;1.02;;;21.30;1.00;;;;;;4938217;29;20039;-84
2023/07/15 01:50:31;;;;;;;4.90;1.50;;;21.30;1.00;;;;;;4953567;29;20047;-83
2023/07/15 01:52:58;;;;;;;4.47;1.42;;;21.30;1.00;;;;;;4932808;29;20491;-84
2023/07/15 01:55:26;;;;;;;2.83;1.00;;;21.30;1.00;;;;;;4926999;29;20364;-82
2023/07/15 01:57:53;;;;;;;1.95;0.90;;;21.20;1.00;;;;;;4952310;29;20040;-84
2023/07/15 02:00:20;;;;;;;2.05;1.17;;;21.20;1.00;;;;;;4934985;29;20482;-83
2023/07/15 02:02:47;;;;;;;3.80;1.17;;;21.10;1.00;;;;;;4952498;28;20042;-83
2023/07/15 02:05:13;;;;;;;4.40;1.20;;;21.10;1.00;;;;;;4933599;29;20043;-83
2023/07/15 02:07:39;;;;;;;2.50;1.40;;;21.00;1.00;;;;;;4953461;29;20447;-83
2023/07/15 02:10:06;;;;;;;3.92;1.58;;;20.90;1.00;;;;;;4949817;29;20039;-83
2023/07/15 02:12:32;;;;;;;1.50;0.90;;;20.90;1.00;;;;;;4931897;29;20047;-83
2023/07/15 02:14:59;;;;;;;3.22;1.08;;;20.90;1.00;;;;;;4933953;29;20050;-82
2023/07/15 02:17:25;;;;;;;2.30;1.05;;;20.90;1.00;;;;;;4951381;29;20035;-83
2023/07/15 02:19:52;;;;;;;2.33;0.93;;;20.80;1.00;;;;;;4951397;29;20035;-87
2023/07/15 02:22:19;;;;;;;3.88;1.30;;;20.80;1.00;;;;;;4953297;29;20031;-82
2023/07/15 02:24:45;;;;;;;2.42;1.15;;;20.80;1.00;;;;;;4917088;29;20059;-83
2023/07/15 02:27:11;;;;;;;3.50;1.25;;;20.70;1.00;;;;;;4934217;29;20239;-85
2023/07/15 02:29:37;;;;;;;6.57;1.38;;;20.60;1.00;;;;;;4933960;29;20039;-85
2023/07/15 02:32:04;;;;;;;2.95;1.48;;;20.60;1.00;;;;;;4933185;29;20035;-83
2023/07/15 02:34:30;;;;;;;3.28;1.55;;;20.60;1.00;;;;;;4950614;29;20031;-84
2023/07/15 02:36:57;;;;;;;5.55;1.70;;;20.60;1.00;;;;;;4952494;29;20039;-84
2023/07/15 02:39:23;;;;;;;3.05;1.20;;;20.60;1.00;;;;;;4931653;29;20530;-84
2023/07/15 02:41:50;;;;;;;3.25;1.20;;;20.60;1.00;;;;;;4942920;29;20031;-83
2023/07/15 02:44:16;;;;;;;1.58;0.75;;;20.50;3.60;;;;;;4955411;29;20039;-82
2023/07/15 02:46:42;;;;;;;2.63;1.67;;;20.50;4.90;;;;;;4940040;29;20440;-82
2023/07/15 02:49:08;;;;;;;5.20;2.17;;;20.40;11.80;;;;;;4955963;29;20032;-82
2023/07/15 02:51:37;;;;;;;2.40;1.10;;;20.40;16.00;;;;;;4933701;29;20043;-83
2023/07/15 02:54:03;;;;;;;2.65;1.13;;;20.30;20.20;;;;;;4934281;29;20039;-83
2023/07/15 02:56:29;;;;;;;2.63;1.30;;;20.30;35.00;;;;;;4952951;29;20383;-83
2023/07/15 02:58:55;;;;;;;3.45;1.83;;;20.20;37.40;;;;;;4934031;29;20047;-84
2023/07/15 03:01:21;;;;;;;1.70;1.05;;;20.20;46.60;;;;;;4952820;29;20038;-83
2023/07/15 03:03:47;;;;;;;2.78;1.38;;;20.20;51.90;;;;;;4952342;29;20062;-84
2023/07/15 03:06:13;;;;;;;3.08;1.63;;;20.10;60.00;;;;;;4949525;29;20311;-83
2023/07/15 03:08:40;;;;;;;2.25;1.10;;;20.10;75.20;;;;;;4948603;29;20038;-83
2023/07/15 03:11:08;;;;;;;4.45;0.80;;;20.10;82.10;;;;;;4951862;29;20039;-83
2023/07/15 03:13:34;;;;;;;2.15;1.10;;;20.10;88.20;;;;;;4937603;29;20039;-82
2023/07/15 03:16:01;;;;;;;2.72;1.30;;;20.10;92.10;;;;;;4954277;29;20031;-82
2023/07/15 03:18:28;;;;;;;2.45;1.25;;;20.10;94.90;;;;;;4939834;29;20039;-84
2023/07/15 03:20:56;;;;;;;2.22;1.33;;;20.10;94.90;;;;;;4939550;29;20050;-85
2023/07/15 03:23:22;;;;;;;3.75;2.10;;;20.10;95.70;;;;;;4932510;29;20387;-83
2023/07/15 03:25:49;;;;;;;2.83;1.42;;;20.10;95.40;;;;;;4954038;29;20066;-83
2023/07/15 03:28:15;;;;;;;3.25;1.58;;;20.10;97.70;;;;;;4954583;29;20363;-84
2023/07/15 03:30:43;;;;;;;4.18;1.40;;;20.20;95.90;;;;;;4941961;29;20059;-83
2023/07/15 03:33:10;;;;;;;2.05;1.15;;;20.20;95.30;;;;;;4953368;29;20356;-83
2023/07/15 03:35:36;;;;;;;4.40;1.33;;;20.20;89.40;;;;;;4936116;29;20042;-82
2023/07/15 03:38:02;;;;;;;4.07;1.77;;;20.20;91.00;;;;;;4955390;29;20038;-83
2023/07/15 03:40:33;;;;;;;5.03;1.42;;;20.20;91.40;;;;;;4952614;29;20054;-83
2023/07/15 03:42:59;;;;;;;5.03;1.67;;;20.20;97.60;;;;;;4937285;29;20040;-84
2023/07/15 03:45:25;;;;;;;2.80;1.17;;;20.20;95.40;;;;;;4936252;29;20066;-84
2023/07/15 03:47:51;;;;;;;2.15;1.33;;;20.20;95.10;;;;;;4935581;29;20035;-83
2023/07/15 03:50:18;;;;;;;3.22;1.40;;;20.30;97.30;;;;;;4951050;29;20039;-83
2023/07/15 03:52:44;;;;;;;2.70;1.42;;;20.30;99.90;;;;;;4944918;29;20051;-83
2023/07/15 03:55:10;;;;;;;2.63;1.73;;;20.30;94.10;;;;;;4952966;29;20490;-83
2023/07/15 03:57:36;;;;;;;2.45;1.52;;;20.20;97.10;;;;;;4955144;29;20051;-84
2023/07/15 04:00:07;;;;;;;2.92;1.63;;;20.20;99.80;;;;;;4935267;29;20043;-83
2023/07/15 04:02:39;;;;;;;4.78;1.50;;;20.20;99.10;;;;;;4943037;28;20039;-83
2023/07/15 04:05:05;;;;;;;3.50;1.20;;;20.20;99.90;;;;;;4933383;29;20044;-83
2023/07/15 04:07:31;;;;;;;2.53;1.50;;;20.20;99.90;;;;;;4952745;29;20040;-83
2023/07/15 04:09:57;;;;;;;3.33;1.45;;;20.20;99.90;;;;;;4942290;29;20055;-83
2023/07/15 04:12:23;;;;;;;3.95;1.50;;;20.20;99.90;;;;;;4954991;29;20031;-82
2023/07/15 04:14:50;;;;;;;2.88;1.33;;;20.10;99.90;;;;;;4954002;29;20035;-83
2023/07/15 04:17:16;;;;;;;4.18;1.83;;;20.10;99.90;;;;;;4950975;29;20363;-82
2023/07/15 04:19:42;;;;;;;3.20;1.30;;;20.10;99.90;;;;;;4952771;29;20036;-84
2023/07/15 04:22:08;;;;;;;2.47;1.10;;;20.10;99.90;;;;;;4954013;29;20035;-84
2023/07/15 04:24:34;;;;;;;3.35;1.55;;;20.20;99.90;;;;;;4938772;29;20043;-83
2023/07/15 04:27:02;;;;;;;5.45;1.27;;;20.20;99.90;;;;;;4954170;29;20506;-83
2023/07/15 04:29:30;;;;;;;2.65;1.58;;;20.30;99.90;;;;;;4949536;29;20434;-83
2023/07/15 04:31:57;;;;;;;2.15;1.35;;;20.50;99.90;;;;;;4949232;29;20031;-85
2023/07/15 04:34:23;;;;;;;3.22;1.50;;;20.70;96.40;;;;;;4949492;29;20434;-84
2023/07/15 04:36:49;;;;;;;4.55;1.77;;;21.00;65.60;;;;;;4953481;29;20042;-83
2023/07/15 04:39:16;;;;;;;6.05;1.70;;;21.30;43.90;;;;;;4937138;29;20377;-84
2023/07/15 04:41:42;;;;;;;4.78;1.98;;;21.70;42.60;;;;;;4953453;29;20035;-84
2023/07/15 04:44:08;;;;;;;2.60;1.50;;;22.10;25.80;;;;;;4953100;29;20368;-84
2023/07/15 04:46:36;;;;;;;3.28;2.00;;;22.60;1.00;;;;;;4951696;29;20039;-84
2023/07/15 04:49:02;;;;;;;3.30;1.67;;;23.00;1.00;;;;;;4952124;29;20359;-84
2023/07/15 04:51:28;;;;;;;3.63;1.25;;;23.40;1.00;;;;;;4935377;29;20044;-84
2023/07/15 04:53:56;;;;;;;1.70;1.00;;;23.70;1.00;;;;;;4952030;29;20394;-82
2023/07/15 04:56:22;;;;;;;3.72;1.73;;;24.00;1.00;;;;;;4936549;29;20039;-84
2023/07/15 04:58:48;;;;;;;3.17;1.25;;;24.30;1.00;;;;;;4939381;29;20044;-83
2023/07/15 05:01:14;;;;;;;1.80;1.10;;;24.40;1.00;;;;;;4960013;28;20043;-84
2023/07/15 05:03:41;;;;;;;2.38;1.33;;;24.60;1.00;;;;;;4952233;29;20035;-84
2023/07/15 05:06:08;;;;;;;7.13;2.15;;;25.00;99.90;;;;;;4952877;29;20031;-83
2023/07/15 05:08:34;;;;;;;4.25;1.40;;;25.10;99.90;;;;;;4952180;29;20039;-83
2023/07/15 05:11:00;;;;;;;2.83;1.48;;;25.30;99.90;;;;;;4952245;29;20047;-85
2023/07/15 05:13:27;;;;;;;3.78;1.85;;;25.40;99.90;;;;;;4953392;29;20035;-83
2023/07/15 05:15:53;;;;;;;2.92;1.50;;;25.60;99.90;;;;;;4952202;29;20035;-84
2023/07/15 05:18:19;;;;;;;2.78;1.30;;;25.80;99.90;;;;;;4934225;29;20458;-83
2023/07/15 05:20:45;;;;;;;2.65;1.08;;;25.80;99.90;;;;;;4917963;29;20055;-83
2023/07/15 05:23:12;;;;;;;2.67;1.23;;;26.00;99.90;;;;;;4953071;29;20035;-83
2023/07/15 05:25:38;;;;;;;2.08;1.38;;;26.30;99.90;;;;;;4934557;29;20047;-83
2023/07/15 05:28:05;;;;;;;2.38;1.20;;;26.50;99.90;;;;;;4919114;29;20054;-84
2023/07/15 05:30:34;;;;;;;6.97;1.70;;;27.00;99.90;;;;;;4935421;29;20047;-83
2023/07/15 05:33:00;;;;;;;2.10;1.40;;;26.90;99.90;;;;;;4930490;29;20051;-84
2023/07/15 05:35:26;;;;;;;3.13;1.55;;;26.90;99.90;;;;;;4930478;28;20383;-83
2023/07/15 05:37:52;;;;;;;2.63;1.25;;;26.70;99.90;;;;;;4933527;29;20487;-85
2023/07/15 05:40:18;;;;;;;2.08;0.93;;;26.80;99.90;;;;;;4940749;29;20310;-85
2023/07/15 05:42:45;;;;;;;3.08;1.45;;;27.10;99.90;;;;;;4952630;29;20031;-84
2023/07/15 05:45:12;;;;;;;4.05;1.00;;;27.60;99.90;;;;;;4932765;29;20051;-85
2023/07/15 05:47:39;;;;;;;2.83;1.33;;;27.70;99.90;;;;;;4939375;28;20483;-84
2023/07/15 05:50:07;;;;;;;3.67;1.45;;;28.00;99.90;;;;;;4947931;28;20035;-85
2023/07/15 05:52:33;;;;;;;4.18;1.10;;;28.00;99.90;;;;;;4953691;29;20043;-83
2023/07/15 05:55:00;;;;;;;1.52;0.95;;;28.30;99.90;;;;;;4951942;29;20032;-86
2023/07/15 05:57:26;;;;;;;1.48;1.00;;;28.50;99.90;;;;;;4935112;29;20038;-84
2023/07/15 05:59:53;;;;;;;2.25;1.52;;;28.80;99.90;;;;;;4929095;29;20043;-84
2023/07/15 06:02:19;;;;;;;2.08;0.80;;;28.90;99.90;;;;;;4950109;29;20043;-84
2023/07/15 06:04:45;;;;;;;1.92;1.10;;;29.00;99.90;;;;;;4950835;29;20047;-84
2023/07/15 06:07:11;;;;;;;2.90;1.45;;;28.70;99.90;;;;;;4950074;29;20059;-84
2023/07/15 06:09:37;;;;;;;2.33;1.05;;;28.20;99.90;;;;;;4931334;29;20046;-86
2023/07/15 06:12:04;;;;;;;2.00;0.93;;;28.00;99.90;;;;;;4949140;29;20031;-84
2023/07/15 06:14:30;;;;;;;2.72;1.13;;;28.00;99.90;;;;;;4934314;29;20402;-84
2023/07/15 06:16:56;;;;;;;1.23;0.73;;;28.30;99.90;;;;;;4952498;29;20386;-85
2023/07/15 06:19:22;;;;;;;1.15;0.75;;;28.90;99.90;;;;;;4934562;29;20034;-85
2023/07/15 06:21:48;;;;;;;2.75;1.00;;;29.20;99.90;;;;;;4952011;29;20035;-84
2023/07/15 06:24:14;;;;;;;4.10;1.42;;;29.40;99.90;;;;;;4933774;29;20078;-83
2023/07/15 06:26:40;;;;;;;2.10;0.80;;;29.30;99.90;;;;;;4933652;29;20058;-85
2023/07/15 06:29:07;;;;;;;2.13;0.82;;;29.00;99.90;;;;;;4951254;29;20035;-85
2023/07/15 06:31:33;;;;;;;1.58;1.02;;;28.50;99.90;;;;;;4934652;29;20042;-85
2023/07/15 06:33:59;;;;;;;2.45;1.20;;;28.50;99.90;;;;;;4950755;29;20031;-84
2023/07/15 06:36:25;;;;;;;2.95;0.90;;;28.60;99.90;;;;;;4950166;29;20048;-83
2023/07/15 06:38:51;;;;;;;1.33;0.90;;;28.70;99.90;;;;;;4952574;29;20039;-84
2023/07/15 06:41:17;;;;;;;3.15;0.93;;;29.00;99.90;;;;;;4947835;29;20034;-84
2023/07/15 06:43:44;;;;;;;4.25;1.17;;;29.30;99.90;;;;;;4950928;29;20035;-84
2023/07/15 06:46:11;;;;;;;1.50;1.13;;;28.90;99.90;;;;;;4950596;29;20100;-84
2023/07/15 06:48:37;;;;;;;1.77;1.17;;;28.20;99.90;;;;;;4952615;28;20038;-85
2023/07/15 06:51:04;;;;;;;2.03;0.98;;;27.70;99.90;;;;;;4937190;29;20062;-86
2023/07/15 06:53:30;;;;;;;2.97;1.05;;;27.30;99.90;;;;;;4951083;29;20042;-86
2023/07/15 06:55:56;;;;;;;1.77;0.80;;;27.20;99.90;;;;;;4954734;29;20058;-85
2023/07/15 06:58:22;;;;;;;1.77;1.08;;;27.10;99.90;;;;;;4954992;29;20378;-85
2023/07/15 07:00:48;;;;;;;2.17;1.23;;;26.90;99.90;;;;;;4955303;29;20042;-84
2023/07/15 07:03:14;;;;;;;1.80;1.02;;;26.80;99.90;;;;;;4951851;29;20042;-84
2023/07/15 07:05:41;;;;;;;1.20;0.95;;;26.80;99.90;;;;;;4937703;29;20094;-84
2023/07/15 07:08:09;;;;;;;2.22;1.17;;;26.70;99.90;;;;;;4953591;29;20039;-85
2023/07/15 07:10:35;;;;;;;2.80;1.15;;;26.60;99.90;;;;;;4956123;29;20043;-88
2023/07/15 07:13:01;;;;;;;2.33;1.38;;;26.60;99.90;;;;;;4939598;29;20043;-86
2023/07/15 07:15:29;;;;;;;1.75;1.17;;;26.50;99.90;;;;;;4957152;29;20046;-85
2023/07/15 07:17:56;;;;;;;4.40;1.23;;;26.50;99.90;;;;;;4953059;29;20497;-86
2023/07/15 07:20:22;;;;;;;2.75;1.05;;;26.50;99.90;;;;;;4950838;29;20032;-87
2023/07/15 07:22:48;;;;;;;2.65;1.23;;;26.50;99.90;;;;;;4953588;29;20027;-87
2023/07/15 07:25:14;;;;;;;3.55;1.60;;;26.50;99.90;;;;;;4934407;29;20110;-88
2023/07/15 07:27:40;;;;;;;7.70;1.98;;;26.50;99.90;;;;;;4959636;29;20058;-88
2023/07/15 07:30:08;;;;;;;2.97;1.20;;;26.50;99.90;;;;;;4959530;29;20046;-87
2023/07/15 07:32:35;;;;;;;4.45;1.20;;;26.50;99.90;;;;;;4956771;29;20087;-86
2023/07/15 07:35:01;;;;;;;2.30;0.95;;;26.50;99.90;;;;;;4952419;29;20042;-86
2023/07/15 07:37:27;;;;;;;2.40;1.33;;;26.40;99.90;;;;;;4952860;29;20036;-86
2023/07/15 07:39:53;;;;;;;5.70;1.20;;;26.20;99.90;;;;;;4936290;29;20055;-86
2023/07/15 07:42:20;;;;;;;2.78;1.50;;;26.10;99.90;;;;;;4935513;29;20043;-86
2023/07/15 07:44:46;;;;;;;2.15;1.30;;;26.00;99.90;;;;;;4934965;29;20043;-85
2023/07/15 07:47:13;;;;;;;2.45;1.35;;;26.00;99.90;;;;;;4951867;29;20027;-85
2023/07/15 07:49:39;;;;;;;2.65;1.30;;;26.00;99.90;;;;;;4954917;29;20084;-84
2023/07/15 07:52:08;;;;;;;2.08;1.15;;;26.10;99.90;;;;;;4955097;29;20482;-85
2023/07/15 07:54:34;;;;;;;2.90;1.23;;;26.30;99.90;;;;;;4953686;29;20042;-86
2023/07/15 07:57:01;;;;;;;5.28;1.55;;;26.50;99.90;;;;;;4936731;29;20047;-85
2023/07/15 07:59:27;;;;;;;2.72;1.25;;;26.60;99.90;;;;;;4954256;28;20471;-85
2023/07/15 08:01:54;;;;;;;3.13;1.40;;;26.80;99.90;;;;;;4935865;29;20047;-86
2023/07/15 08:04:20;;;;;;;3.05;1.23;;;26.80;99.90;;;;;;4953115;29;20051;-85
2023/07/15 08:06:46;;;;;;;3.80;1.58;;;26.90;99.90;;;;;;4954198;29;20031;-85
2023/07/15 08:09:12;;;;;;;4.88;1.25;;;27.30;99.90;;;;;;4953428;29;20031;-85
2023/07/15 08:11:39;;;;;;;3.72;1.45;;;27.70;99.90;;;;;;4952748;29;20529;-85
2023/07/15 08:14:05;;;;;;;2.92;1.33;;;27.80;99.90;;;;;;4952034;29;20050;-86
2023/07/15 08:16:33;;;;;;;1.88;1.05;;;28.00;99.90;;;;;;4951259;29;20039;-85
2023/07/15 08:19:00;;;;;;;2.80;1.48;;;28.50;99.90;;;;;;4954674;29;20039;-84
2023/07/15 08:21:27;;;;;;;2.28;1.20;;;29.10;99.90;;;;;;4952763;29;20035;-84
2023/07/15 08:23:54;;;;;;;3.58;1.48;;;29.70;99.90;;;;;;4955047;29;20378;-85
2023/07/15 08:26:21;;;;;;;2.83;1.42;;;29.30;99.90;;;;;;4956994;29;20059;-84
2023/07/15 08:28:47;;;;;;;4.05;1.83;;;29.40;99.90;;;;;;4954394;29;20043;-85
2023/07/15 08:31:13;;;;;;;3.17;1.33;;;29.90;99.90;;;;;;4951858;29;20050;-85
2023/07/15 08:33:40;;;;;;;3.05;1.42;;;30.40;99.90;;;;;;4952197;29;20492;-84
2023/07/15 08:36:06;;;;;;;3.95;1.50;;;30.30;99.90;;;;;;4953723;29;20051;-85
2023/07/15 08:38:32;;;;;;;3.53;0.85;;;30.40;99.90;;;;;;4919480;29;20043;-86
2023/07/15 08:41:00;;;;;;;9.75;1.27;;;30.30;99.90;;;;;;4953720;29;20042;-86
2023/07/15 08:43:29;;;;;;;3.08;1.35;;;30.00;99.90;;;;;;4951674;29;20034;-86
2023/07/15 08:45:59;;;;;;;5.22;1.10;;;29.90;99.90;;;;;;4950363;29;20047;-86
2023/07/15 08:48:26;;;;;;;2.95;1.27;;;29.60;99.90;;;;;;4951563;29;20470;-85
2023/07/15 08:50:56;;;;;;;2.10;0.90;;;29.50;99.90;;;;;;4951904;29;20047;-84
2023/07/15 08:53:25;;;;;;;2.15;0.95;;;29.60;99.90;;;;;;4935677;29;20050;-85
2023/07/15 08:55:55;;;;;;;1.77;1.15;;;29.90;99.90;;;;;;4934920;29;20487;-84
2023/07/15 08:58:21;;;;;;;1.90;0.95;;;30.50;99.20;;;;;;4950851;29;20035;-85
2023/07/15 09:00:52;;;;;;;1.63;1.00;;;30.80;99.40;;;;;;4938258;29;20039;-84
2023/07/15 09:03:19;;;;;;;1.48;0.68;;;30.90;93.40;;;;;;4935704;29;20039;-85
2023/07/15 09:05:48;;;;;;;3.20;1.20;;;30.80;80.30;;;;;;4953941;29;20050;-84
2023/07/15 09:08:18;;;;;;;2.97;1.30;;;30.70;94.20;;;;;;4937046;29;20047;-84
2023/07/15 09:10:58;;;;;;;2.00;1.15;;;30.90;99.90;;;;;;4950168;29;20216;-85
2023/07/15 09:13:29;;;;;;;1.92;0.98;;;30.90;99.90;;;;;;4938982;29;20043;-84
2023/07/15 09:15:57;;;;;;;2.97;1.25;;;31.30;92.60;;;;;;4944013;29;20043;-83
2023/07/15 09:18:23;;;;;;;4.32;1.23;;;31.00;94.70;;;;;;4952886;29;20390;-85
2023/07/15 09:20:50;;;;;;;6.55;1.27;;;30.90;99.80;;;;;;4956235;29;20047;-85
2023/07/15 09:23:18;;;;;;;3.22;1.30;;;31.50;86.20;;;;;;4954798;29;20046;-85
2023/07/15 09:25:54;;;;;;;3.15;1.65;;;31.60;70.50;;;;;;4951745;29;20067;-84
2023/07/15 09:28:21;;;;;;;3.78;2.35;;;31.20;96.30;;;;;;4951699;29;20066;-85
2023/07/15 09:30:47;;;;;;;5.63;1.98;;;31.00;99.90;;;;;;4954786;29;20485;-84
2023/07/15 09:33:32;;;;;;;3.00;1.30;;;31.10;99.90;;;;;;4952043;29;20027;-84
2023/07/15 09:36:02;;;;;;;5.57;1.83;;;30.80;99.90;;;;;;4945025;29;20047;-85
2023/07/15 09:38:36;;;;;;;6.47;1.50;;;30.60;99.90;;;;;;4948631;29;20043;-85
2023/07/15 09:41:04;;;;;;;1.88;1.20;;;30.40;99.90;;;;;;4953577;29;20039;-84
2023/07/15 09:43:44;;;;;;;2.15;1.20;;;30.40;99.90;;;;;;4953055;29;20406;-84
2023/07/15 09:46:12;;;;;;;2.60;1.08;;;30.40;99.90;;;;;;4953078;29;20054;-85
2023/07/15 09:48:39;;;;;;;3.00;1.33;;;30.10;99.90;;;;;;4936739;29;20054;-86
2023/07/15 09:51:05;;;;;;;2.72;1.08;;;30.30;99.90;;;;;;4951773;29;20039;-83
2023/07/15 09:53:32;;;;;;;3.33;0.93;;;30.20;99.90;;;;;;4949097;29;20090;-85
2023/07/15 09:55:59;;;;;;;2.20;1.23;;;30.00;99.90;;;;;;4948321;29;20043;-84
2023/07/15 09:58:25;;;;;;;8.30;1.20;;;29.70;99.90;;;;;;4934579;29;20031;-85
2023/07/15 10:01:03;;;;;;;1.80;0.93;;;29.50;99.90;;;;;;4948870;29;20042;-87
2023/07/15 10:03:41;;;;;;;2.65;1.50;;;29.40;99.90;;;;;;4953411;29;20031;-85
2023/07/15 10:06:07;;;;;;;3.67;1.23;;;29.20;99.90;;;;;;4949760;29;20494;-85
2023/07/15 10:08:34;;;;;;;1.60;1.20;;;29.10;99.90;;;;;;4955655;29;20366;-83
2023/07/15 10:11:01;;;;;;;3.75;1.45;;;29.00;99.90;;;;;;4949654;29;20035;-84
2023/07/15 10:13:28;;;;;;;2.63;1.45;;;29.00;99.90;;;;;;4951118;29;20042;-85
2023/07/15 10:15:54;;;;;;;3.05;1.38;;;29.00;99.90;;;;;;4952437;29;20039;-86
2023/07/15 10:18:22;;;;;;;3.15;1.42;;;28.90;99.90;;;;;;4950595;29;20031;-86
2023/07/15 10:20:55;;;;;;;3.60;1.38;;;28.80;99.90;;;;;;4931525;29;20167;-86
2023/07/15 10:23:26;;;;;;;2.88;1.40;;;28.80;99.90;;;;;;4911168;29;20816;-87
2023/07/15 10:26:06;;;;;;;2.63;1.55;;;28.90;99.90;;;;;;4952716;29;20491;-88
2023/07/15 10:28:34;;;;;;;6.53;1.33;;;29.10;99.90;;;;;;4951173;29;20262;-88
2023/07/15 10:31:07;;;;;;;2.72;1.60;;;29.20;99.90;;;;;;4952934;29;20402;-89
2023/07/15 10:33:36;;;;;;;4.68;1.75;;;29.30;99.90;;;;;;4949928;29;20036;-89
2023/07/15 10:36:05;;;;;;;5.32;1.88;;;29.10;99.90;;;;;;4933196;29;20489;-86
2023/07/15 10:38:32;;;;;;;3.15;1.67;;;29.20;99.90;;;;;;4953767;29;20043;-88
2023/07/15 10:41:02;;;;;;;3.70;1.73;;;29.20;99.90;;;;;;4953894;29;20046;-88
2023/07/15 10:43:34;;;;;;;3.65;1.48;;;29.10;99.90;;;;;;4932066;29;20035;-87
2023/07/15 10:46:16;;;;;;;2.00;1.58;;;29.00;99.90;;;;;;4935335;29;20047;-88
2023/07/15 10:48:42;;;;;;;2.08;1.45;;;29.10;99.90;;;;;;4949853;29;20043;-89
2023/07/15 10:51:10;;;;;;;1.98;1.17;;;29.10;99.90;;;;;;4935840;29;20039;-87
2023/07/15 10:53:36;;;;;;;8.13;1.55;;;29.10;99.90;;;;;;4933649;29;20050;-88
2023/07/15 10:56:10;;;;;;;3.83;1.80;;;29.10;99.90;;;;;;4952752;29;20137;-87
2023/07/15 10:58:37;;;;;;;4.35;1.60;;;29.10;99.90;;;;;;4946986;29;20470;-89
2023/07/15 11:01:08;;;;;;;3.22;1.83;;;29.20;99.90;;;;;;4954233;29;20505;-89
2023/07/15 11:03:37;;;;;;;5.88;1.45;;;29.10;99.90;;;;;;4934953;29;20408;-89
2023/07/15 11:06:05;;;;;;;3.60;1.67;;;29.10;99.90;;;;;;4950621;29;20513;-89
2023/07/15 11:08:32;;;;;;;4.25;1.30;;;29.00;99.90;;;;;;4953345;29;20042;-88
2023/07/15 11:11:03;;;;;;;2.67;1.65;;;28.90;99.90;;;;;;4934318;29;20051;-89
2023/07/15 11:13:30;;;;;;;2.05;1.40;;;28.70;99.90;;;;;;4951748;29;20043;-89
2023/07/15 11:15:57;;;;;;;1.77;1.15;;;28.70;99.90;;;;;;4937076;29;20042;-88
2023/07/15 11:18:25;;;;;;;3.17;1.58;;;28.70;99.90;;;;;;4933638;29;20044;-89
2023/07/15 11:20:55;;;;;;;2.63;1.48;;;28.60;99.90;;;;;;4949961;29;20035;-89
2023/07/15 11:23:22;;;;;;;3.33;1.67;;;28.50;99.90;;;;;;4946854;29;20035;-90
2023/07/15 11:25:48;;;;;;;3.20;1.50;;;28.20;99.90;;;;;;4953540;29;20066;-87
2023/07/15 11:28:16;;;;;;;3.85;2.15;;;28.10;99.90;;;;;;4952413;29;20039;-88
2023/07/15 11:30:47;;;;;;;6.13;2.30;;;28.00;99.90;;;;;;4953198;29;20031;-87
2023/07/15 11:33:14;;;;;;;3.40;1.45;;;27.90;99.90;;;;;;4935002;28;20067;-86
2023/07/15 11:35:41;;;;;;;3.70;1.70;;;27.80;99.90;;;;;;4953868;29;20047;-86
2023/07/15 11:38:13;;;;;;;3.47;1.65;;;27.70;99.90;;;;;;4956117;29;20042;-86
2023/07/15 11:40:52;;;;;;;3.20;1.48;;;27.60;99.90;;;;;;4938589;29;20047;-84
2023/07/15 11:43:20;;;;;;;3.33;1.40;;;27.50;99.90;;;;;;4959338;29;20046;-87
2023/07/15 11:45:47;;;;;;;5.32;2.20;;;27.50;99.90;;;;;;4939529;29;20039;-86
2023/07/15 11:48:27;;;;;;;4.32;1.70;;;27.60;99.90;;;;;;4954096;29;20035;-86
2023/07/15 11:50:57;;;;;;;4.45;1.63;;;27.70;99.90;;;;;;4955213;29;20039;-89
2023/07/15 11:53:29;;;;;;;3.85;1.77;;;28.00;99.90;;;;;;4941219;29;20038;-89
2023/07/15 11:55:55;;;;;;;2.88;1.77;;;28.20;99.90;;;;;;4936930;29;20059;-88
2023/07/15 11:58:42;;;;;;;5.65;2.70;;;28.30;99.90;;;;;;4938312;29;20035;-87
2023/07/15 12:01:18;;;;;;;1.85;1.23;;;28.30;99.90;;;;;;4935554;29;20046;-83
2023/07/15 12:03:45;;;;;;;4.07;2.17;;;28.50;99.90;;;;;;4966546;29;20031;-89
2023/07/15 12:06:19;;;;;;;5.35;2.42;;;28.60;99.90;;;;;;4945018;29;20050;-80
2023/07/15 12:09:09;;;;;;;4.65;1.65;;;28.70;99.90;;;;;;4960942;29;20047;-82
2023/07/15 12:11:36;;;;;;;2.78;1.50;;;28.90;99.90;;;;;;4955754;29;20042;-79
2023/07/15 12:14:04;;;;;;;3.15;1.80;;;29.00;99.90;;;;;;4954486;29;20031;-88
2023/07/15 12:16:32;;;;;;;3.13;1.58;;;29.00;99.90;;;;;;4960915;29;20043;-88
2023/07/15 12:19:02;;;;;;;5.55;1.63;;;29.00;99.90;;;;;;4940829;29;20066;-88
2023/07/15 12:21:29;;;;;;;6.05;1.77;;;29.00;99.90;;;;;;4954463;29;20038;-87
2023/07/15 12:23:56;;;;;;;4.40;1.83;;;29.20;99.90;;;;;;4954265;29;20042;-89
2023/07/15 12:26:22;;;;;;;3.90;2.08;;;29.10;99.90;;;;;;4954789;29;20047;-90
2023/07/15 12:28:49;;;;;;;4.90;2.08;;;29.00;99.90;;;;;;4957812;29;20047;-89
2023/07/15 12:31:16;;;;;;;3.67;2.08;;;29.00;99.90;;;;;;4954694;29;20035;-89
2023/07/15 12:33:43;;;;;;;3.63;1.95;;;29.10;99.90;;;;;;4951503;29;20031;-89
2023/07/15 12:36:14;;;;;;;2.92;1.73;;;29.10;99.90;;;;;;4955036;29;20407;-89
2023/07/15 12:38:40;;;;;;;11.70;2.30;;;29.20;99.90;;;;;;4954510;29;20028;-88
2023/07/15 12:41:08;;;;;;;4.45;2.13;;;29.20;99.90;;;;;;4956148;29;20031;-87
2023/07/15 12:43:35;;;;;;;2.85;1.83;;;29.40;99.90;;;;;;4935176;29;20046;-89
2023/07/15 12:46:02;;;;;;;4.68;2.38;;;29.50;99.90;;;;;;4935299;29;20051;-89
2023/07/15 12:48:29;;;;;;;5.40;1.98;;;29.60;99.90;;;;;;4934051;29;20039;-87
2023/07/15 12:50:55;;;;;;;5.53;2.67;;;29.50;99.90;;;;;;4952970;29;20042;-90
2023/07/15 12:53:23;;;;;;;3.60;2.40;;;29.00;99.90;;;;;;4951166;29;20763;-88